Observations for EXETER AIRPORT, United Kingdom (EGTE)

EGTE 151950Z 20006KT 160V230 9999 SCT015 BKN025 19/15 Q1016 
EGTE 151850Z 20006KT 170V230 9999 FEW010 BKN024 20/15 Q1016 
EGTE 151820Z 20006KT 170V230 9999 FEW010 BKN024 19/15 Q1016 
EGTE 151750Z 20008KT 9999 FEW010 BKN024 19/14 Q1016 
EGTE 151720Z 20013KT 9999 FEW018 BKN032 21/15 Q1017 
EGTE 151650Z 21012KT 9999 FEW018 BKN032 21/16 Q1017 
EGTE 151620Z 22012KT 9999 FEW015 BKN032 20/14 Q1017 
EGTE 151550Z 24011KT 9999 SCT030 SCT040 22/16 Q1017 
EGTE 151520Z 22013KT 9999 FEW022 SCT040 21/14 Q1017 
EGTE 151450Z 22014KT 9999 FEW022 SCT040 22/15 Q1017 
EGTE 151420Z 22013KT 9999 FEW022 SCT040 22/15 Q1017 
EGTE 151350Z 21012KT 9999 FEW022 SCT045 21/15 Q1018 
EGTE 151320Z 22010KT 9999 FEW022 SCT045 21/16 Q1018 
EGTE 151250Z 23010KT 9999 FEW020 BKN030 20/15 Q1019 
EGTE 151220Z 21010KT 9999 FEW025 BKN035 20/14 Q1019 
EGTE 151150Z 23009KT 9999 FEW025 BKN040 20/15 Q1019 
EGTE 151120Z 21010KT 9999 FEW025 BKN030 20/14 Q1019 
EGTE 151050Z 24009KT 210V270 9999 BKN030 21/15 Q1019
EGTE 151020Z 23009KT 210V270 9999 BKN030 20/14 Q1019
EGTE 150950Z 22009KT 9999 FEW020 BKN030 19/14 Q1019 
EGTE 150920Z 22008KT 9999 FEW020 BKN030 19/15 Q1019 
EGTE 150850Z 21009KT 9999 BKN030 19/15 Q1019
EGTE 150820Z 21008KT 9999 BKN030 19/16 Q1019
EGTE 150750Z 21008KT 9999 BKN030 19/16 Q1019
EGTE 150720Z 21008KT 9999 SCT022 BKN030 18/15 Q1019 
EGTE 150650Z 21007KT 9999 BKN026 18/15 Q1019
EGTE 150620Z 21008KT 9999 BKN026 17/14 Q1019
EGTE 150550Z 21007KT 9999 BKN028 18/14 Q1019
EGTE 150520Z 20005KT 9999 BKN025 17/14 Q1019
EGTE 150450Z 21005KT 9999 BKN025 16/13 Q1019
EGTE 150120Z 26008KT 230V290 9999 BKN020 17/14 Q1019
EGTE 150050Z 26009KT 9999 BKN020 16/13 Q1019
EGTE 150020Z 26008KT 9999 BKN020 18/15 Q1019
EGTE 142350Z 26008KT 230V290 9999 BKN020 17/13 Q1019
EGTE 142320Z 26007KT 9999 BKN020 18/14 Q1020
EGTE 142250Z 26006KT 9999 FEW018 SCT023 17/14 Q1020 
EGTE 142220Z 28010KT 240V300 9999 FEW018 SCT023 18/15 Q1020 
EGTE 142150Z 28007KT 240V300 9999 BKN018 18/14 Q1020
EGTE 142120Z 27009KT 240V300 9000 BKN019 17/13 Q1020
EGTE 142050Z 29009KT 260V320 9999 FEW016 BKN021 18/15 Q1020 
EGTE 142020Z 28008KT 260V320 9999 BKN017 18/15 Q1020
EGTE 141950Z 27009KT 240V320 9999 BKN018 19/16 Q1020
EGTE 141920Z 27007KT 230V320 9999 BKN021 18/14 Q1019